sensor_id;sensor_type;location;lat;lon;timestamp;P1;durP1;ratioP1;P2;durP2;ratioP2
77722;SDS011;67811;42.656;23.394;2023-07-29T00:00:21;5.20;;;2.85;;
77722;SDS011;67811;42.656;23.394;2023-07-29T00:02:46;4.43;;;2.50;;
77722;SDS011;67811;42.656;23.394;2023-07-29T00:05:12;5.45;;;3.42;;
77722;SDS011;67811;42.656;23.394;2023-07-29T00:07:37;3.13;;;2.22;;
77722;SDS011;67811;42.656;23.394;2023-07-29T00:10:03;5.53;;;2.25;;
77722;SDS011;67811;42.656;23.394;2023-07-29T00:12:28;11.73;;;2.95;;
77722;SDS011;67811;42.656;23.394;2023-07-29T00:14:54;2.83;;;2.53;;
77722;SDS011;67811;42.656;23.394;2023-07-29T00:17:19;11.93;;;3.72;;
77722;SDS011;67811;42.656;23.394;2023-07-29T00:19:45;5.65;;;3.15;;
77722;SDS011;67811;42.656;23.394;2023-07-29T00:22:10;3.10;;;2.08;;
77722;SDS011;67811;42.656;23.394;2023-07-29T00:24:36;7.10;;;4.50;;
77722;SDS011;67811;42.656;23.394;2023-07-29T00:27:01;6.53;;;4.18;;
77722;SDS011;67811;42.656;23.394;2023-07-29T00:29:27;7.28;;;3.03;;
77722;SDS011;67811;42.656;23.394;2023-07-29T00:31:52;5.65;;;2.97;;
77722;SDS011;67811;42.656;23.394;2023-07-29T00:34:17;8.07;;;3.22;;
77722;SDS011;67811;42.656;23.394;2023-07-29T00:36:42;8.10;;;3.33;;
77722;SDS011;67811;42.656;23.394;2023-07-29T00:39:08;5.70;;;3.40;;
77722;SDS011;67811;42.656;23.394;2023-07-29T00:41:33;6.20;;;3.60;;
77722;SDS011;67811;42.656;23.394;2023-07-29T00:43:58;7.45;;;2.90;;
77722;SDS011;67811;42.656;23.394;2023-07-29T00:46:24;5.82;;;2.88;;
77722;SDS011;67811;42.656;23.394;2023-07-29T00:48:49;6.95;;;4.78;;
77722;SDS011;67811;42.656;23.394;2023-07-29T00:51:14;4.90;;;3.22;;
77722;SDS011;67811;42.656;23.394;2023-07-29T00:53:40;4.03;;;2.97;;
77722;SDS011;67811;42.656;23.394;2023-07-29T00:56:05;5.80;;;4.00;;
77722;SDS011;67811;42.656;23.394;2023-07-29T00:58:31;7.43;;;3.33;;
77722;SDS011;67811;42.656;23.394;2023-07-29T01:00:56;7.10;;;3.65;;
77722;SDS011;67811;42.656;23.394;2023-07-29T01:03:22;5.13;;;3.38;;
77722;SDS011;67811;42.656;23.394;2023-07-29T01:11:01;5.88;;;3.47;;
77722;SDS011;67811;42.656;23.394;2023-07-29T01:13:44;6.60;;;3.60;;
77722;SDS011;67811;42.656;23.394;2023-07-29T01:16:21;5.35;;;2.72;;
77722;SDS011;67811;42.656;23.394;2023-07-29T01:18:50;4.88;;;2.97;;
77722;SDS011;67811;42.656;23.394;2023-07-29T01:21:19;6.05;;;2.90;;
77722;SDS011;67811;42.656;23.394;2023-07-29T01:23:45;4.32;;;3.08;;
77722;SDS011;67811;42.656;23.394;2023-07-29T01:26:11;5.57;;;2.60;;
77722;SDS011;67811;42.656;23.394;2023-07-29T01:28:36;6.20;;;2.97;;
77722;SDS011;67811;42.656;23.394;2023-07-29T01:31:16;3.10;;;2.63;;
77722;SDS011;67811;42.656;23.394;2023-07-29T01:33:47;3.88;;;2.00;;
77722;SDS011;67811;42.656;23.394;2023-07-29T01:36:21;7.40;;;3.42;;
77722;SDS011;67811;42.656;23.394;2023-07-29T01:38:50;4.40;;;2.75;;
77722;SDS011;67811;42.656;23.394;2023-07-29T01:41:17;4.13;;;2.60;;
77722;SDS011;67811;42.656;23.394;2023-07-29T01:43:43;4.45;;;2.80;;
77722;SDS011;67811;42.656;23.394;2023-07-29T01:46:10;3.67;;;2.50;;
77722;SDS011;67811;42.656;23.394;2023-07-29T01:48:36;4.10;;;3.28;;
77722;SDS011;67811;42.656;23.394;2023-07-29T01:51:01;7.90;;;3.53;;
77722;SDS011;67811;42.656;23.394;2023-07-29T01:53:26;3.95;;;2.78;;
77722;SDS011;67811;42.656;23.394;2023-07-29T01:55:52;6.82;;;3.08;;
77722;SDS011;67811;42.656;23.394;2023-07-29T01:58:18;5.63;;;2.83;;
77722;SDS011;67811;42.656;23.394;2023-07-29T02:00:43;3.10;;;2.38;;
77722;SDS011;67811;42.656;23.394;2023-07-29T02:03:08;5.22;;;3.20;;
77722;SDS011;67811;42.656;23.394;2023-07-29T02:05:34;3.85;;;2.65;;
77722;SDS011;67811;42.656;23.394;2023-07-29T02:07:59;4.25;;;3.63;;
77722;SDS011;67811;42.656;23.394;2023-07-29T02:10:24;5.20;;;2.88;;
77722;SDS011;67811;42.656;23.394;2023-07-29T02:12:50;8.23;;;3.85;;
77722;SDS011;67811;42.656;23.394;2023-07-29T02:15:15;5.30;;;3.13;;
77722;SDS011;67811;42.656;23.394;2023-07-29T02:17:43;4.32;;;2.60;;
77722;SDS011;67811;42.656;23.394;2023-07-29T02:20:08;4.85;;;3.13;;
77722;SDS011;67811;42.656;23.394;2023-07-29T02:22:34;2.10;;;1.92;;
77722;SDS011;67811;42.656;23.394;2023-07-29T02:24:59;9.20;;;3.58;;
77722;SDS011;67811;42.656;23.394;2023-07-29T02:27:24;3.95;;;2.75;;
77722;SDS011;67811;42.656;23.394;2023-07-29T02:29:50;6.15;;;3.70;;
77722;SDS011;67811;42.656;23.394;2023-07-29T02:32:15;6.93;;;3.90;;
77722;SDS011;67811;42.656;23.394;2023-07-29T02:34:40;6.97;;;3.75;;
77722;SDS011;67811;42.656;23.394;2023-07-29T02:37:05;4.80;;;3.42;;
77722;SDS011;67811;42.656;23.394;2023-07-29T02:39:31;10.05;;;3.70;;
77722;SDS011;67811;42.656;23.394;2023-07-29T02:41:56;5.90;;;3.42;;
77722;SDS011;67811;42.656;23.394;2023-07-29T02:44:21;12.25;;;3.83;;
77722;SDS011;67811;42.656;23.394;2023-07-29T02:46:46;4.35;;;3.17;;
77722;SDS011;67811;42.656;23.394;2023-07-29T02:49:12;5.28;;;3.45;;
77722;SDS011;67811;42.656;23.394;2023-07-29T02:51:37;5.15;;;3.17;;
77722;SDS011;67811;42.656;23.394;2023-07-29T02:54:02;6.75;;;3.78;;
77722;SDS011;67811;42.656;23.394;2023-07-29T02:56:27;5.35;;;3.65;;
77722;SDS011;67811;42.656;23.394;2023-07-29T02:58:53;7.80;;;3.55;;
77722;SDS011;67811;42.656;23.394;2023-07-29T03:01:18;10.88;;;3.97;;
77722;SDS011;67811;42.656;23.394;2023-07-29T03:03:43;8.23;;;3.80;;
77722;SDS011;67811;42.656;23.394;2023-07-29T03:06:10;6.63;;;3.95;;
77722;SDS011;67811;42.656;23.394;2023-07-29T03:08:36;6.65;;;3.50;;
77722;SDS011;67811;42.656;23.394;2023-07-29T03:11:08;5.50;;;3.88;;
77722;SDS011;67811;42.656;23.394;2023-07-29T03:13:38;4.43;;;3.05;;
77722;SDS011;67811;42.656;23.394;2023-07-29T03:16:13;7.10;;;3.47;;
77722;SDS011;67811;42.656;23.394;2023-07-29T03:18:40;5.95;;;3.22;;
77722;SDS011;67811;42.656;23.394;2023-07-29T03:21:06;6.93;;;4.45;;
77722;SDS011;67811;42.656;23.394;2023-07-29T03:23:33;4.90;;;3.65;;
77722;SDS011;67811;42.656;23.394;2023-07-29T03:25:59;11.82;;;4.22;;
77722;SDS011;67811;42.656;23.394;2023-07-29T03:28:26;5.93;;;3.65;;
77722;SDS011;67811;42.656;23.394;2023-07-29T03:30:53;8.07;;;4.35;;
77722;SDS011;67811;42.656;23.394;2023-07-29T03:33:18;5.75;;;3.70;;
77722;SDS011;67811;42.656;23.394;2023-07-29T03:35:44;8.38;;;3.95;;
77722;SDS011;67811;42.656;23.394;2023-07-29T03:38:09;4.13;;;3.08;;
77722;SDS011;67811;42.656;23.394;2023-07-29T03:40:34;4.88;;;2.95;;
77722;SDS011;67811;42.656;23.394;2023-07-29T03:42:59;5.40;;;2.88;;
77722;SDS011;67811;42.656;23.394;2023-07-29T03:45:25;9.45;;;4.40;;
77722;SDS011;67811;42.656;23.394;2023-07-29T03:47:50;6.18;;;3.42;;
77722;SDS011;67811;42.656;23.394;2023-07-29T03:50:15;11.20;;;4.22;;
77722;SDS011;67811;42.656;23.394;2023-07-29T03:52:40;6.68;;;4.10;;
77722;SDS011;67811;42.656;23.394;2023-07-29T03:55:06;8.85;;;5.07;;
77722;SDS011;67811;42.656;23.394;2023-07-29T03:57:31;7.35;;;4.40;;
77722;SDS011;67811;42.656;23.394;2023-07-29T03:59:57;5.75;;;3.75;;
77722;SDS011;67811;42.656;23.394;2023-07-29T04:02:22;7.60;;;4.57;;
77722;SDS011;67811;42.656;23.394;2023-07-29T04:04:47;10.60;;;3.70;;
77722;SDS011;67811;42.656;23.394;2023-07-29T04:07:13;11.27;;;4.55;;
77722;SDS011;67811;42.656;23.394;2023-07-29T04:09:38;7.93;;;4.28;;
77722;SDS011;67811;42.656;23.394;2023-07-29T04:12:04;11.70;;;5.32;;
77722;SDS011;67811;42.656;23.394;2023-07-29T04:14:29;11.90;;;5.72;;
77722;SDS011;67811;42.656;23.394;2023-07-29T04:16:54;10.35;;;6.13;;
77722;SDS011;67811;42.656;23.394;2023-07-29T04:19:20;10.27;;;5.68;;
77722;SDS011;67811;42.656;23.394;2023-07-29T04:21:45;11.23;;;5.70;;
77722;SDS011;67811;42.656;23.394;2023-07-29T04:24:10;10.95;;;6.00;;
77722;SDS011;67811;42.656;23.394;2023-07-29T04:26:35;10.23;;;5.75;;
77722;SDS011;67811;42.656;23.394;2023-07-29T04:29:01;14.07;;;5.82;;
77722;SDS011;67811;42.656;23.394;2023-07-29T04:31:26;8.77;;;5.75;;
77722;SDS011;67811;42.656;23.394;2023-07-29T04:33:51;8.70;;;6.63;;
77722;SDS011;67811;42.656;23.394;2023-07-29T04:36:16;14.57;;;5.22;;
77722;SDS011;67811;42.656;23.394;2023-07-29T04:38:42;11.32;;;6.05;;
77722;SDS011;67811;42.656;23.394;2023-07-29T04:41:07;11.15;;;6.43;;
77722;SDS011;67811;42.656;23.394;2023-07-29T04:43:32;11.07;;;6.05;;
77722;SDS011;67811;42.656;23.394;2023-07-29T04:45:57;9.27;;;5.35;;
77722;SDS011;67811;42.656;23.394;2023-07-29T04:48:23;9.02;;;5.40;;
77722;SDS011;67811;42.656;23.394;2023-07-29T04:50:48;13.57;;;5.97;;
77722;SDS011;67811;42.656;23.394;2023-07-29T04:53:13;12.10;;;5.75;;
77722;SDS011;67811;42.656;23.394;2023-07-29T04:55:41;11.25;;;5.40;;
77722;SDS011;67811;42.656;23.394;2023-07-29T04:58:06;8.10;;;5.45;;
77722;SDS011;67811;42.656;23.394;2023-07-29T05:00:32;15.07;;;5.32;;
77722;SDS011;67811;42.656;23.394;2023-07-29T05:02:57;10.18;;;6.35;;
77722;SDS011;67811;42.656;23.394;2023-07-29T05:05:22;14.20;;;5.40;;
77722;SDS011;67811;42.656;23.394;2023-07-29T05:07:47;11.20;;;5.57;;
77722;SDS011;67811;42.656;23.394;2023-07-29T05:10:13;8.60;;;4.70;;
77722;SDS011;67811;42.656;23.394;2023-07-29T05:12:38;11.35;;;5.90;;
77722;SDS011;67811;42.656;23.394;2023-07-29T05:15:03;8.20;;;5.10;;
77722;SDS011;67811;42.656;23.394;2023-07-29T05:17:29;8.82;;;5.90;;
77722;SDS011;67811;42.656;23.394;2023-07-29T05:19:54;12.52;;;5.32;;
77722;SDS011;67811;42.656;23.394;2023-07-29T05:22:19;6.25;;;4.75;;
77722;SDS011;67811;42.656;23.394;2023-07-29T05:24:45;7.75;;;5.13;;
77722;SDS011;67811;42.656;23.394;2023-07-29T05:27:10;10.38;;;4.50;;
77722;SDS011;67811;42.656;23.394;2023-07-29T05:29:35;12.63;;;4.90;;
77722;SDS011;67811;42.656;23.394;2023-07-29T05:32:01;9.32;;;5.05;;
77722;SDS011;67811;42.656;23.394;2023-07-29T05:34:26;8.50;;;4.75;;
77722;SDS011;67811;42.656;23.394;2023-07-29T05:36:51;9.98;;;4.78;;
77722;SDS011;67811;42.656;23.394;2023-07-29T05:39:17;7.90;;;5.63;;
77722;SDS011;67811;42.656;23.394;2023-07-29T05:41:42;11.10;;;5.15;;
77722;SDS011;67811;42.656;23.394;2023-07-29T05:44:07;9.00;;;5.35;;
77722;SDS011;67811;42.656;23.394;2023-07-29T05:46:32;9.52;;;4.97;;
77722;SDS011;67811;42.656;23.394;2023-07-29T05:48:58;13.25;;;7.65;;
77722;SDS011;67811;42.656;23.394;2023-07-29T05:51:23;12.88;;;5.65;;
77722;SDS011;67811;42.656;23.394;2023-07-29T05:53:48;12.68;;;5.32;;
77722;SDS011;67811;42.656;23.394;2023-07-29T05:56:13;10.63;;;5.53;;
77722;SDS011;67811;42.656;23.394;2023-07-29T05:58:39;12.98;;;6.40;;
77722;SDS011;67811;42.656;23.394;2023-07-29T06:01:04;27.58;;;7.10;;
77722;SDS011;67811;42.656;23.394;2023-07-29T06:03:29;18.67;;;6.55;;
77722;SDS011;67811;42.656;23.394;2023-07-29T06:05:54;10.98;;;5.53;;
77722;SDS011;67811;42.656;23.394;2023-07-29T06:08:20;7.53;;;5.22;;
77722;SDS011;67811;42.656;23.394;2023-07-29T06:10:45;11.20;;;5.80;;
77722;SDS011;67811;42.656;23.394;2023-07-29T06:13:11;10.98;;;5.55;;
77722;SDS011;67811;42.656;23.394;2023-07-29T06:15:36;10.73;;;5.57;;
77722;SDS011;67811;42.656;23.394;2023-07-29T06:18:01;12.57;;;5.10;;
77722;SDS011;67811;42.656;23.394;2023-07-29T06:20:26;13.10;;;5.55;;
77722;SDS011;67811;42.656;23.394;2023-07-29T06:22:52;11.15;;;5.65;;
77722;SDS011;67811;42.656;23.394;2023-07-29T06:25:17;11.23;;;5.75;;
77722;SDS011;67811;42.656;23.394;2023-07-29T06:27:42;12.02;;;5.65;;
77722;SDS011;67811;42.656;23.394;2023-07-29T06:30:08;9.88;;;4.70;;
77722;SDS011;67811;42.656;23.394;2023-07-29T06:32:33;8.30;;;4.80;;
77722;SDS011;67811;42.656;23.394;2023-07-29T06:34:59;13.52;;;6.32;;
77722;SDS011;67811;42.656;23.394;2023-07-29T06:37:24;9.45;;;5.38;;
77722;SDS011;67811;42.656;23.394;2023-07-29T06:39:50;6.53;;;4.80;;
77722;SDS011;67811;42.656;23.394;2023-07-29T06:42:15;10.98;;;5.13;;
77722;SDS011;67811;42.656;23.394;2023-07-29T06:44:40;8.15;;;5.07;;
77722;SDS011;67811;42.656;23.394;2023-07-29T06:47:05;10.48;;;4.93;;
77722;SDS011;67811;42.656;23.394;2023-07-29T06:49:31;13.63;;;5.20;;
77722;SDS011;67811;42.656;23.394;2023-07-29T06:51:56;6.50;;;4.15;;
77722;SDS011;67811;42.656;23.394;2023-07-29T06:54:25;9.80;;;5.07;;
77722;SDS011;67811;42.656;23.394;2023-07-29T06:56:50;10.07;;;4.40;;
77722;SDS011;67811;42.656;23.394;2023-07-29T06:59:15;7.55;;;4.65;;
77722;SDS011;67811;42.656;23.394;2023-07-29T07:01:41;13.57;;;5.18;;
77722;SDS011;67811;42.656;23.394;2023-07-29T07:04:06;7.40;;;4.25;;
77722;SDS011;67811;42.656;23.394;2023-07-29T07:06:31;10.93;;;5.05;;
77722;SDS011;67811;42.656;23.394;2023-07-29T07:08:57;10.13;;;5.63;;
77722;SDS011;67811;42.656;23.394;2023-07-29T07:11:22;6.15;;;4.50;;
77722;SDS011;67811;42.656;23.394;2023-07-29T07:13:47;6.35;;;4.55;;
77722;SDS011;67811;42.656;23.394;2023-07-29T07:16:12;7.10;;;4.53;;
77722;SDS011;67811;42.656;23.394;2023-07-29T07:18:38;7.93;;;4.50;;
77722;SDS011;67811;42.656;23.394;2023-07-29T07:21:03;8.15;;;4.60;;
77722;SDS011;67811;42.656;23.394;2023-07-29T07:23:28;7.57;;;4.60;;
77722;SDS011;67811;42.656;23.394;2023-07-29T07:25:53;7.38;;;3.72;;
77722;SDS011;67811;42.656;23.394;2023-07-29T07:28:19;9.90;;;4.90;;
77722;SDS011;67811;42.656;23.394;2023-07-29T07:30:44;8.23;;;4.57;;
77722;SDS011;67811;42.656;23.394;2023-07-29T07:33:09;8.07;;;5.32;;
77722;SDS011;67811;42.656;23.394;2023-07-29T07:35:34;9.00;;;5.18;;
77722;SDS011;67811;42.656;23.394;2023-07-29T07:38:00;9.05;;;4.40;;
77722;SDS011;67811;42.656;23.394;2023-07-29T07:40:25;9.93;;;4.50;;
77722;SDS011;67811;42.656;23.394;2023-07-29T07:42:50;7.78;;;4.03;;
77722;SDS011;67811;42.656;23.394;2023-07-29T07:45:16;32.92;;;6.18;;
77722;SDS011;67811;42.656;23.394;2023-07-29T07:47:41;6.20;;;4.25;;
77722;SDS011;67811;42.656;23.394;2023-07-29T07:50:06;7.90;;;4.20;;
77722;SDS011;67811;42.656;23.394;2023-07-29T07:52:32;9.43;;;4.43;;
77722;SDS011;67811;42.656;23.394;2023-07-29T07:54:57;6.97;;;4.43;;
77722;SDS011;67811;42.656;23.394;2023-07-29T07:57:22;9.02;;;4.57;;
77722;SDS011;67811;42.656;23.394;2023-07-29T07:59:48;9.98;;;4.80;;
77722;SDS011;67811;42.656;23.394;2023-07-29T08:02:13;7.53;;;4.00;;
77722;SDS011;67811;42.656;23.394;2023-07-29T08:04:38;14.95;;;5.05;;
77722;SDS011;67811;42.656;23.394;2023-07-29T08:07:04;10.73;;;4.13;;
77722;SDS011;67811;42.656;23.394;2023-07-29T08:09:29;8.23;;;4.18;;
77722;SDS011;67811;42.656;23.394;2023-07-29T08:11:54;6.68;;;3.78;;
77722;SDS011;67811;42.656;23.394;2023-07-29T08:14:20;8.82;;;4.63;;
77722;SDS011;67811;42.656;23.394;2023-07-29T08:16:45;8.48;;;4.28;;
77722;SDS011;67811;42.656;23.394;2023-07-29T08:19:10;6.50;;;3.83;;
77722;SDS011;67811;42.656;23.394;2023-07-29T08:21:36;11.38;;;4.75;;
77722;SDS011;67811;42.656;23.394;2023-07-29T08:24:01;11.50;;;5.40;;
77722;SDS011;67811;42.656;23.394;2023-07-29T08:26:26;5.65;;;4.35;;
77722;SDS011;67811;42.656;23.394;2023-07-29T08:28:51;7.38;;;5.05;;
77722;SDS011;67811;42.656;23.394;2023-07-29T08:31:17;6.32;;;3.92;;
77722;SDS011;67811;42.656;23.394;2023-07-29T08:33:42;7.80;;;4.50;;
77722;SDS011;67811;42.656;23.394;2023-07-29T08:36:07;11.40;;;4.53;;
77722;SDS011;67811;42.656;23.394;2023-07-29T08:38:33;6.22;;;3.63;;
77722;SDS011;67811;42.656;23.394;2023-07-29T08:41:13;8.98;;;3.65;;
77722;SDS011;67811;42.656;23.394;2023-07-29T08:43:47;8.40;;;3.33;;
77722;SDS011;67811;42.656;23.394;2023-07-29T08:46:18;4.60;;;3.78;;
77722;SDS011;67811;42.656;23.394;2023-07-29T08:48:44;6.65;;;3.88;;
77722;SDS011;67811;42.656;23.394;2023-07-29T08:51:11;5.60;;;3.30;;
77722;SDS011;67811;42.656;23.394;2023-07-29T08:53:37;6.68;;;3.30;;
77722;SDS011;67811;42.656;23.394;2023-07-29T08:56:03;5.10;;;3.75;;
77722;SDS011;67811;42.656;23.394;2023-07-29T08:58:29;10.32;;;3.50;;
77722;SDS011;67811;42.656;23.394;2023-07-29T09:00:54;9.55;;;3.60;;
77722;SDS011;67811;42.656;23.394;2023-07-29T09:03:20;8.05;;;3.40;;
77722;SDS011;67811;42.656;23.394;2023-07-29T09:05:46;4.68;;;3.30;;
77722;SDS011;67811;42.656;23.394;2023-07-29T09:08:11;3.70;;;2.83;;
77722;SDS011;67811;42.656;23.394;2023-07-29T09:10:37;5.15;;;3.08;;
77722;SDS011;67811;42.656;23.394;2023-07-29T09:13:03;4.53;;;3.05;;
77722;SDS011;67811;42.656;23.394;2023-07-29T09:15:30;3.05;;;2.33;;
77722;SDS011;67811;42.656;23.394;2023-07-29T09:17:57;6.30;;;2.30;;
77722;SDS011;67811;42.656;23.394;2023-07-29T09:20:26;2.65;;;2.00;;
77722;SDS011;67811;42.656;23.394;2023-07-29T09:22:53;7.35;;;2.28;;
77722;SDS011;67811;42.656;23.394;2023-07-29T09:25:23;2.95;;;1.88;;
77722;SDS011;67811;42.656;23.394;2023-07-29T09:27:49;2.63;;;2.17;;
77722;SDS011;67811;42.656;23.394;2023-07-29T09:30:15;3.33;;;2.35;;
77722;SDS011;67811;42.656;23.394;2023-07-29T09:32:41;4.70;;;2.60;;
77722;SDS011;67811;42.656;23.394;2023-07-29T09:35:09;4.47;;;2.65;;
77722;SDS011;67811;42.656;23.394;2023-07-29T09:37:36;4.88;;;2.42;;
77722;SDS011;67811;42.656;23.394;2023-07-29T09:42:27;5.13;;;2.42;;
77722;SDS011;67811;42.656;23.394;2023-07-29T09:44:53;2.83;;;2.10;;
77722;SDS011;67811;42.656;23.394;2023-07-29T09:47:21;3.08;;;2.00;;
77722;SDS011;67811;42.656;23.394;2023-07-29T09:49:48;2.65;;;1.70;;
77722;SDS011;67811;42.656;23.394;2023-07-29T09:52:17;2.55;;;1.70;;
77722;SDS011;67811;42.656;23.394;2023-07-29T09:54:47;4.75;;;1.80;;
77722;SDS011;67811;42.656;23.394;2023-07-29T09:57:16;3.38;;;2.03;;
77722;SDS011;67811;42.656;23.394;2023-07-29T09:59:43;6.00;;;2.05;;
77722;SDS011;67811;42.656;23.394;2023-07-29T10:02:09;2.08;;;1.60;;
77722;SDS011;67811;42.656;23.394;2023-07-29T10:04:41;3.40;;;1.70;;
77722;SDS011;67811;42.656;23.394;2023-07-29T10:07:06;4.93;;;2.38;;
77722;SDS011;67811;42.656;23.394;2023-07-29T10:09:33;7.25;;;2.22;;
77722;SDS011;67811;42.656;23.394;2023-07-29T10:11:59;6.93;;;2.10;;
77722;SDS011;67811;42.656;23.394;2023-07-29T10:14:25;2.05;;;1.42;;
77722;SDS011;67811;42.656;23.394;2023-07-29T10:16:53;5.35;;;2.85;;
77722;SDS011;67811;42.656;23.394;2023-07-29T10:19:18;4.35;;;2.58;;
77722;SDS011;67811;42.656;23.394;2023-07-29T10:21:44;5.65;;;2.03;;
77722;SDS011;67811;42.656;23.394;2023-07-29T10:24:17;6.03;;;2.00;;
77722;SDS011;67811;42.656;23.394;2023-07-29T10:26:46;5.90;;;1.98;;
77722;SDS011;67811;42.656;23.394;2023-07-29T10:29:12;3.80;;;1.65;;
77722;SDS011;67811;42.656;23.394;2023-07-29T10:31:38;3.40;;;1.70;;
77722;SDS011;67811;42.656;23.394;2023-07-29T10:34:07;10.70;;;2.20;;
77722;SDS011;67811;42.656;23.394;2023-07-29T10:36:34;4.88;;;1.90;;
77722;SDS011;67811;42.656;23.394;2023-07-29T10:39:01;3.67;;;1.77;;
77722;SDS011;67811;42.656;23.394;2023-07-29T10:41:53;3.42;;;1.35;;
77722;SDS011;67811;42.656;23.394;2023-07-29T10:47:24;4.30;;;1.40;;
77722;SDS011;67811;42.656;23.394;2023-07-29T10:49:58;2.42;;;1.50;;
77722;SDS011;67811;42.656;23.394;2023-07-29T10:52:28;2.88;;;1.30;;
77722;SDS011;67811;42.656;23.394;2023-07-29T10:54:54;2.92;;;1.17;;
77722;SDS011;67811;42.656;23.394;2023-07-29T10:57:35;2.92;;;1.45;;
77722;SDS011;67811;42.656;23.394;2023-07-29T11:00:03;2.92;;;1.40;;
77722;SDS011;67811;42.656;23.394;2023-07-29T11:02:33;2.00;;;0.75;;
77722;SDS011;67811;42.656;23.394;2023-07-29T11:05:04;0.90;;;0.55;;
77722;SDS011;67811;42.656;23.394;2023-07-29T11:07:31;5.47;;;1.40;;
77722;SDS011;67811;42.656;23.394;2023-07-29T11:10:07;1.38;;;0.90;;
77722;SDS011;67811;42.656;23.394;2023-07-29T11:12:40;2.58;;;0.90;;
77722;SDS011;67811;42.656;23.394;2023-07-29T11:15:25;3.50;;;1.00;;
77722;SDS011;67811;42.656;23.394;2023-07-29T11:17:55;1.40;;;1.08;;
77722;SDS011;67811;42.656;23.394;2023-07-29T11:20:24;2.45;;;1.00;;
77722;SDS011;67811;42.656;23.394;2023-07-29T11:22:52;4.50;;;1.27;;
77722;SDS011;67811;42.656;23.394;2023-07-29T11:25:18;4.25;;;1.40;;
77722;SDS011;67811;42.656;23.394;2023-07-29T11:27:44;2.00;;;1.65;;
77722;SDS011;67811;42.656;23.394;2023-07-29T11:30:11;1.60;;;1.00;;
77722;SDS011;67811;42.656;23.394;2023-07-29T11:32:38;2.65;;;1.20;;
77722;SDS011;67811;42.656;23.394;2023-07-29T11:35:05;2.67;;;1.42;;
77722;SDS011;67811;42.656;23.394;2023-07-29T11:37:33;7.03;;;1.60;;
77722;SDS011;67811;42.656;23.394;2023-07-29T11:39:59;3.70;;;1.65;;
77722;SDS011;67811;42.656;23.394;2023-07-29T11:42:25;3.25;;;1.30;;
77722;SDS011;67811;42.656;23.394;2023-07-29T11:44:51;6.80;;;1.90;;
77722;SDS011;67811;42.656;23.394;2023-07-29T11:47:16;5.15;;;2.42;;
77722;SDS011;67811;42.656;23.394;2023-07-29T11:49:42;3.30;;;1.63;;
77722;SDS011;67811;42.656;23.394;2023-07-29T11:52:07;4.25;;;1.48;;
77722;SDS011;67811;42.656;23.394;2023-07-29T11:54:37;3.50;;;1.77;;
77722;SDS011;67811;42.656;23.394;2023-07-29T11:57:06;2.10;;;1.40;;
77722;SDS011;67811;42.656;23.394;2023-07-29T11:59:33;3.00;;;1.67;;
77722;SDS011;67811;42.656;23.394;2023-07-29T12:02:00;10.60;;;1.73;;
77722;SDS011;67811;42.656;23.394;2023-07-29T12:04:26;3.80;;;1.50;;
77722;SDS011;67811;42.656;23.394;2023-07-29T12:06:52;6.10;;;2.00;;
77722;SDS011;67811;42.656;23.394;2023-07-29T12:09:17;3.70;;;2.47;;
77722;SDS011;67811;42.656;23.394;2023-07-29T12:11:42;5.10;;;1.70;;
77722;SDS011;67811;42.656;23.394;2023-07-29T12:14:08;4.10;;;1.48;;
77722;SDS011;67811;42.656;23.394;2023-07-29T12:16:40;2.47;;;1.40;;
77722;SDS011;67811;42.656;23.394;2023-07-29T12:19:11;2.45;;;1.20;;
77722;SDS011;67811;42.656;23.394;2023-07-29T12:21:37;5.35;;;1.50;;
77722;SDS011;67811;42.656;23.394;2023-07-29T12:24:02;2.50;;;1.45;;
77722;SDS011;67811;42.656;23.394;2023-07-29T12:26:29;2.90;;;1.33;;
77722;SDS011;67811;42.656;23.394;2023-07-29T12:31:19;2.10;;;1.50;;
77722;SDS011;67811;42.656;23.394;2023-07-29T12:33:45;4.18;;;1.65;;
77722;SDS011;67811;42.656;23.394;2023-07-29T12:36:10;2.78;;;1.55;;
77722;SDS011;67811;42.656;23.394;2023-07-29T12:38:36;4.80;;;1.73;;
77722;SDS011;67811;42.656;23.394;2023-07-29T12:41:01;6.03;;;2.58;;
77722;SDS011;67811;42.656;23.394;2023-07-29T12:43:26;2.53;;;1.40;;
77722;SDS011;67811;42.656;23.394;2023-07-29T12:45:52;2.08;;;1.10;;
77722;SDS011;67811;42.656;23.394;2023-07-29T12:48:17;3.15;;;1.75;;
77722;SDS011;67811;42.656;23.394;2023-07-29T12:50:42;3.97;;;1.95;;
77722;SDS011;67811;42.656;23.394;2023-07-29T12:53:08;6.90;;;1.70;;
77722;SDS011;67811;42.656;23.394;2023-07-29T12:55:34;8.70;;;1.88;;
77722;SDS011;67811;42.656;23.394;2023-07-29T12:57:59;3.28;;;1.33;;
77722;SDS011;67811;42.656;23.394;2023-07-29T13:00:25;2.88;;;2.10;;
77722;SDS011;67811;42.656;23.394;2023-07-29T13:02:50;2.10;;;1.30;;
77722;SDS011;67811;42.656;23.394;2023-07-29T13:05:16;6.10;;;1.67;;
77722;SDS011;67811;42.656;23.394;2023-07-29T13:07:41;2.85;;;1.70;;
77722;SDS011;67811;42.656;23.394;2023-07-29T13:10:08;2.80;;;1.27;;
77722;SDS011;67811;42.656;23.394;2023-07-29T13:12:34;5.80;;;1.58;;
77722;SDS011;67811;42.656;23.394;2023-07-29T13:15:00;5.25;;;1.92;;
77722;SDS011;67811;42.656;23.394;2023-07-29T13:17:25;3.03;;;1.88;;
77722;SDS011;67811;42.656;23.394;2023-07-29T13:19:51;3.45;;;1.58;;
77722;SDS011;67811;42.656;23.394;2023-07-29T13:22:16;5.05;;;1.90;;
77722;SDS011;67811;42.656;23.394;2023-07-29T13:24:42;4.05;;;2.33;;
77722;SDS011;67811;42.656;23.394;2023-07-29T13:27:07;6.60;;;2.08;;
77722;SDS011;67811;42.656;23.394;2023-07-29T13:29:32;5.47;;;2.40;;
77722;SDS011;67811;42.656;23.394;2023-07-29T13:31:57;3.33;;;2.22;;
77722;SDS011;67811;42.656;23.394;2023-07-29T13:34:23;3.03;;;1.80;;
77722;SDS011;67811;42.656;23.394;2023-07-29T13:36:48;2.88;;;1.92;;
77722;SDS011;67811;42.656;23.394;2023-07-29T13:39:13;2.95;;;2.13;;
77722;SDS011;67811;42.656;23.394;2023-07-29T13:41:38;4.00;;;1.95;;
77722;SDS011;67811;42.656;23.394;2023-07-29T13:44:04;3.83;;;2.25;;
77722;SDS011;67811;42.656;23.394;2023-07-29T13:46:29;4.78;;;2.10;;
77722;SDS011;67811;42.656;23.394;2023-07-29T13:48:54;4.20;;;1.88;;
77722;SDS011;67811;42.656;23.394;2023-07-29T13:51:20;7.90;;;2.28;;
77722;SDS011;67811;42.656;23.394;2023-07-29T13:53:45;4.47;;;1.83;;
77722;SDS011;67811;42.656;23.394;2023-07-29T13:56:10;5.53;;;1.60;;
77722;SDS011;67811;42.656;23.394;2023-07-29T13:58:35;2.47;;;1.52;;
77722;SDS011;67811;42.656;23.394;2023-07-29T14:01:01;5.05;;;2.20;;
77722;SDS011;67811;42.656;23.394;2023-07-29T14:03:26;3.80;;;2.83;;
77722;SDS011;67811;42.656;23.394;2023-07-29T14:05:51;4.25;;;1.75;;
77722;SDS011;67811;42.656;23.394;2023-07-29T14:08:17;2.95;;;1.77;;
77722;SDS011;67811;42.656;23.394;2023-07-29T14:10:42;6.22;;;2.00;;
77722;SDS011;67811;42.656;23.394;2023-07-29T14:13:07;3.58;;;1.65;;
77722;SDS011;67811;42.656;23.394;2023-07-29T14:15:32;8.43;;;2.78;;
77722;SDS011;67811;42.656;23.394;2023-07-29T14:17:58;4.90;;;2.42;;
77722;SDS011;67811;42.656;23.394;2023-07-29T14:20:23;4.85;;;2.20;;
77722;SDS011;67811;42.656;23.394;2023-07-29T14:22:48;4.10;;;2.30;;
77722;SDS011;67811;42.656;23.394;2023-07-29T14:25:14;4.93;;;1.73;;
77722;SDS011;67811;42.656;23.394;2023-07-29T14:27:39;3.00;;;1.70;;
77722;SDS011;67811;42.656;23.394;2023-07-29T14:30:05;5.05;;;1.85;;
77722;SDS011;67811;42.656;23.394;2023-07-29T14:32:30;4.00;;;2.10;;
77722;SDS011;67811;42.656;23.394;2023-07-29T14:34:56;2.75;;;1.45;;
77722;SDS011;67811;42.656;23.394;2023-07-29T14:37:21;5.57;;;1.65;;